Saturday, May 26, 2018, 12:13 PM GMT
Back to Local

CWDQ, La Tuque

Location: , , Canada Lat: 47.417
Local Time: 12:13 PM GMT (12:13 GMT) Lon: -72.8
Time Zone: GMT Elev: 554 ft

Show me the last for .
Show Coded

Time T Td Feel RH Dir Speed Gust Alt SLP Vis Weather Sky Remarks
2018-05-26 11:00 56 38 - 51 360° 8 - - 29.77 0 None
2018-05-26 10:00 56 38 - 50 360° 7 - - 29.73 0 None
2018-05-26 09:00 56 40 - 54 350° 3 - - 29.70 0 None
2018-05-26 08:00 59 40 - 48 10° 6 - - 29.67 0 None
2018-05-26 07:00 60 53 - 76 10° 3 - - 29.65 0 None
2018-05-26 06:00 60 58 - 91 350° 2 - - 29.62 0 None
2018-05-26 05:00 61 59 - 91 80° 2 - - 29.62 0 None
2018-05-26 04:00 62 59 - 90 110° 2 - - 29.62 0 None
2018-05-26 03:00 63 59 - 86 140° 2 - - 29.60 0 None
2018-05-26 02:00 67 58 - 71 290° 6 - - 29.59 0 None
2018-05-26 01:00 66 59 - 76 120° 3 - - 29.57 0 None
2018-05-26 00:00 69 58 - 68 180° 3 - - 29.57 0 None
2018-05-25 23:00 71 58 76 63 240° 3 - - 29.55 0 Peak wind: 29 mph (26 kts) from 270° at 24 min
2018-05-25 22:00 78 55 79 45 290° 7 - - 29.52 0 None
2018-05-25 21:00 78 56 79 47 260° 5 - - 29.53 0 Peak wind: 19 mph (17 kts) from 240° at 13 min
2018-05-25 20:00 77 62 79 59 240° 5 - - 29.54 0 None
2018-05-25 19:00 70 62 - 76 230° 5 - - 29.55 0 Peak wind: 23 mph (20 kts) from 280° at 41 min
2018-05-25 18:00 85 50 - 29 290° 8 - - 29.54 0 Peak wind: 24 mph (21 kts) from 310° at 05 min
2018-05-25 17:00 85 50 - 30 270° 10 18 - 29.56 0 Peak wind: 19 mph (17 kts) from 260° at 12 min
2018-05-25 16:00 84 50 - 30 280° 12 21 - 29.58 0 Peak wind: 20 mph (18 kts) from 260° at 41 min
1-hr Precip Total: 0.04"
2018-05-25 15:00 80 49 - 34 290° 12 18 - 29.60 0 None
2018-05-25 14:00 76 50 - 39 290° 8 - - 29.63 0 None
2018-05-25 13:00 73 50 76 44 290° 6 - - 29.64 0 Peak wind: 21 mph (19 kts) from 300° at 30 min

Support USWX by starting your Amazon purchase here.